createdAt,value
2018-07-15T00:02:14.130Z,98739.85
2018-07-15T00:04:42.062Z,98738.73
2018-07-15T00:07:08.519Z,98739.88
2018-07-15T00:09:35.222Z,98740.09
2018-07-15T00:12:02.026Z,98736.70
2018-07-15T00:14:28.501Z,98733.51
2018-07-15T00:16:55.010Z,98743.02
2018-07-15T00:19:21.474Z,98738.65
2018-07-15T00:21:47.933Z,98735.34
2018-07-15T00:24:14.876Z,98742.39
2018-07-15T00:26:41.325Z,98738.73
2018-07-15T00:29:07.791Z,98740.53
2018-07-15T00:31:34.551Z,98734.92
2018-07-15T00:34:01.802Z,98730.94
2018-07-15T00:36:28.301Z,98736.25
2018-07-15T00:38:56.504Z,98734.27
2018-07-15T00:41:23.541Z,98729.16
2018-07-15T00:43:50.132Z,98729.83
2018-07-15T00:46:17.949Z,98725.93
2018-07-15T00:48:44.434Z,98728.44
2018-07-15T00:51:10.931Z,98720.55
2018-07-15T00:53:37.706Z,98718.16
2018-07-15T00:56:04.186Z,98723.48
2018-07-15T00:58:31.600Z,98716.95
2018-07-15T01:00:58.682Z,98713.56
2018-07-15T01:03:25.233Z,98718.95
2018-07-15T01:05:51.776Z,98715.09
2018-07-15T01:08:18.292Z,98718.03
2018-07-15T01:10:45.225Z,98712.84
2018-07-15T01:13:12.941Z,98717.38
2018-07-15T01:15:40.058Z,98713.52
2018-07-15T01:18:08.754Z,98707.81
2018-07-15T01:20:35.449Z,98711.53
2018-07-15T01:23:02.143Z,98710.88
2018-07-15T01:25:29.351Z,98708.53
2018-07-15T01:27:59.471Z,98707.77
2018-07-15T01:30:26.556Z,98702.09
2018-07-15T01:32:53.180Z,98708.44
2018-07-15T01:35:22.410Z,98705.51
2018-07-15T01:37:52.556Z,98704.77
2018-07-15T01:40:20.078Z,98705.55
2018-07-15T01:42:46.663Z,98707.55
2018-07-15T01:45:13.752Z,98707.36
2018-07-15T01:47:41.166Z,98704.52
2018-07-15T01:50:08.228Z,98701.59
2018-07-15T01:52:34.786Z,98703.89
2018-07-15T01:55:02.744Z,98701.43
2018-07-15T01:57:29.448Z,98702.45
2018-07-15T02:00:00.412Z,98702.09
2018-07-15T02:02:28.980Z,98699.72
2018-07-15T02:04:58.365Z,98699.37
2018-07-15T02:07:25.196Z,98698.52
2018-07-15T02:09:52.173Z,98696.36
2018-07-15T02:12:18.663Z,98695.03
2018-07-15T02:14:45.495Z,98696.79
2018-07-15T02:17:12.322Z,98694.25
2018-07-15T02:19:38.990Z,98692.26
2018-07-15T02:22:05.451Z,98691.33
2018-07-15T02:24:32.439Z,98696.70
2018-07-15T02:26:59.567Z,98694.25
2018-07-15T02:29:26.510Z,98688.59
2018-07-15T02:31:53.705Z,98695.21
2018-07-15T02:34:20.849Z,98698.23
2018-07-15T02:36:47.585Z,98696.89
2018-07-15T02:39:14.009Z,98699.66
2018-07-15T02:41:41.676Z,98697.28
2018-07-15T02:44:12.209Z,98693.97
2018-07-15T02:46:38.923Z,98697.28
2018-07-15T02:49:06.998Z,98699.56
2018-07-15T02:51:33.470Z,98696.81
2018-07-15T02:53:59.951Z,98698.20
2018-07-15T02:56:26.941Z,98701.03
2018-07-15T02:58:53.505Z,98695.38
2018-07-15T03:01:19.982Z,98686.56
2018-07-15T03:03:49.433Z,98695.00
2018-07-15T03:06:18.293Z,98697.47
2018-07-15T03:08:45.139Z,98692.53
2018-07-15T03:11:11.738Z,98692.52
2018-07-15T03:13:39.447Z,98690.98
2018-07-15T03:16:06.592Z,98688.63
2018-07-15T03:18:34.257Z,98686.37
2018-07-15T03:21:01.258Z,98696.86
2018-07-15T03:23:27.726Z,98688.33
2018-07-15T03:25:54.422Z,98688.23
2018-07-15T03:28:20.897Z,98689.09
2018-07-15T03:30:47.763Z,98692.86
2018-07-15T03:33:14.272Z,98685.48
2018-07-15T03:35:40.830Z,98689.17
2018-07-15T03:38:07.284Z,98696.94
2018-07-15T03:40:35.022Z,98690.97
2018-07-15T03:43:01.514Z,98686.23
2018-07-15T03:45:28.021Z,98688.68
2018-07-15T03:47:54.517Z,98684.13
2018-07-15T03:50:21.089Z,98682.92
2018-07-15T03:52:47.578Z,98679.88
2018-07-15T03:55:15.693Z,98679.80
2018-07-15T03:57:42.476Z,98670.34
2018-07-15T04:00:08.989Z,98670.62
2018-07-15T04:02:35.474Z,98665.15
2018-07-15T04:05:01.943Z,98667.80
2018-07-15T04:07:29.481Z,98668.19
2018-07-15T04:09:55.989Z,98666.47
2018-07-15T04:12:22.472Z,98672.34
2018-07-15T04:14:49.226Z,98669.38
2018-07-15T04:17:15.982Z,98670.70
2018-07-15T04:19:42.457Z,98669.59
2018-07-15T04:22:08.936Z,98664.68
2018-07-15T04:24:35.420Z,98668.55
2018-07-15T04:27:02.363Z,98659.74
2018-07-15T04:29:28.852Z,98665.17
2018-07-15T04:31:56.216Z,98661.38
2018-07-15T04:34:22.697Z,98653.52
2018-07-15T04:36:49.622Z,98651.45
2018-07-15T04:39:16.085Z,98654.11
2018-07-15T04:41:42.561Z,98651.34
2018-07-15T04:44:09.201Z,98649.18
2018-07-15T04:46:35.937Z,98651.37
2018-07-15T04:49:02.385Z,98652.59
2018-07-15T04:51:28.910Z,98645.88
2018-07-15T04:53:55.899Z,98653.14
2018-07-15T04:56:22.382Z,98651.36
2018-07-15T04:58:48.869Z,98657.30
2018-07-15T05:01:15.650Z,98652.20
2018-07-15T05:03:42.151Z,98652.94
2018-07-15T05:06:08.642Z,98653.52
2018-07-15T05:08:35.288Z,98654.38
2018-07-15T05:11:02.326Z,98657.56
2018-07-15T05:13:28.795Z,98654.20
2018-07-15T05:15:55.252Z,98658.17
2018-07-15T05:18:21.701Z,98664.20
2018-07-15T05:20:48.178Z,98668.05
2018-07-15T05:23:14.672Z,98669.97
2018-07-15T05:25:41.153Z,98670.48
2018-07-15T05:28:07.965Z,98664.94
2018-07-15T05:30:34.414Z,98666.77
2018-07-15T05:33:00.906Z,98672.52
2018-07-15T05:35:27.348Z,98673.74
2018-07-15T05:40:25.781Z,98679.71
2018-07-15T05:42:52.416Z,98672.20
2018-07-15T05:45:18.868Z,98670.62
2018-07-15T05:47:45.875Z,98675.62
2018-07-15T05:50:12.530Z,98675.98
2018-07-15T05:52:38.996Z,98679.05
2018-07-15T05:55:05.572Z,98680.25
2018-07-15T05:57:32.583Z,98678.02
2018-07-15T05:59:59.062Z,98677.92
2018-07-15T06:02:25.554Z,98678.95
2018-07-15T06:04:52.438Z,98676.30
2018-07-15T06:07:18.897Z,98676.03
2018-07-15T06:09:45.352Z,98682.07
2018-07-15T06:12:12.645Z,98677.75
2018-07-15T06:14:39.700Z,98675.63
2018-07-15T06:17:06.691Z,98677.66
2018-07-15T06:19:33.188Z,98671.64
2018-07-15T06:22:00.973Z,98670.59
2018-07-15T06:24:28.954Z,98670.09
2018-07-15T06:26:55.400Z,98673.98
2018-07-15T06:29:22.680Z,98671.20
2018-07-15T06:31:49.544Z,98674.95
2018-07-15T06:34:16.032Z,98673.12
2018-07-15T06:36:42.480Z,98667.16
2018-07-15T06:39:08.929Z,98663.61
2018-07-15T06:41:36.891Z,98663.55
2018-07-15T06:44:03.347Z,98660.19
2018-07-15T06:46:29.840Z,98665.25
2018-07-15T06:48:57.309Z,98668.97
2018-07-15T06:51:23.773Z,98670.05
2018-07-15T06:53:50.289Z,98672.13
2018-07-15T06:56:21.567Z,98665.11
2018-07-15T06:58:48.202Z,98668.84
2018-07-15T07:01:14.734Z,98665.35
2018-07-15T07:03:41.665Z,98668.88
2018-07-15T07:06:08.154Z,98669.45
2018-07-15T07:08:34.620Z,98670.37
2018-07-15T07:11:02.714Z,98672.58
2018-07-15T07:13:29.284Z,98678.20
2018-07-15T07:15:55.764Z,98676.34
2018-07-15T07:18:22.666Z,98675.33
2018-07-15T07:20:49.149Z,98675.20
2018-07-15T07:23:15.613Z,98672.41
2018-07-15T07:25:42.516Z,98672.39
2018-07-15T07:28:09.870Z,98670.75
2018-07-15T07:30:36.349Z,98685.44
2018-07-15T07:33:03.257Z,98677.27
2018-07-15T07:35:29.863Z,98686.80
2018-07-15T07:37:56.289Z,98676.38
2018-07-15T07:40:22.741Z,98674.37
2018-07-15T07:42:49.589Z,98674.42
2018-07-15T07:45:16.043Z,98671.11
2018-07-15T07:47:42.525Z,98675.80
2018-07-15T07:50:09.901Z,98677.39
2018-07-15T07:52:36.353Z,98680.87
2018-07-15T07:55:03.646Z,98676.97
2018-07-15T07:57:30.459Z,98671.31
2018-07-15T07:59:56.915Z,98669.52
2018-07-15T08:02:24.010Z,98674.48
2018-07-15T08:04:50.875Z,98673.06
2018-07-15T08:07:17.324Z,98675.67
2018-07-15T08:12:20.018Z,98672.86
2018-07-15T08:14:46.579Z,98679.53
2018-07-15T08:17:13.270Z,98670.51
2018-07-15T08:19:46.442Z,98671.36
2018-07-15T08:22:13.463Z,98668.47
2018-07-15T08:24:41.384Z,98666.55
2018-07-15T08:27:08.421Z,98663.02
2018-07-15T08:29:38.812Z,98665.98
2018-07-15T08:32:06.264Z,98666.49
2018-07-15T08:34:34.333Z,98664.40
2018-07-15T08:37:00.932Z,98667.54
2018-07-15T08:39:27.428Z,98665.57
2018-07-15T08:41:54.156Z,98664.81
2018-07-15T08:44:23.940Z,98665.84
2018-07-15T08:46:50.841Z,98665.38
2018-07-15T08:49:17.606Z,98676.05
2018-07-15T08:51:44.052Z,98665.61
2018-07-15T08:54:10.527Z,98667.41
2018-07-15T08:56:37.494Z,98663.51
2018-07-15T08:59:04.413Z,98670.62
2018-07-15T09:01:31.093Z,98665.28
2018-07-15T09:03:58.108Z,98668.82
2018-07-15T09:06:25.108Z,98669.80
2018-07-15T09:08:54.766Z,98664.74
2018-07-15T09:11:23.273Z,98669.16
2018-07-15T09:13:51.055Z,98664.60
2018-07-15T09:16:17.989Z,98656.77
2018-07-15T09:18:44.825Z,98658.34
2018-07-15T09:21:11.400Z,98652.67
2018-07-15T09:23:38.626Z,98657.38
2018-07-15T09:26:06.364Z,98652.36
2018-07-15T09:28:33.015Z,98647.98
2018-07-15T09:30:59.493Z,98644.34
2018-07-15T09:33:26.254Z,98650.59
2018-07-15T09:35:52.741Z,98654.00
2018-07-15T09:38:19.341Z,98652.67
2018-07-15T09:40:46.151Z,98664.78
2018-07-15T09:43:15.125Z,98657.27
2018-07-15T09:45:42.505Z,98657.09
2018-07-15T09:48:09.318Z,98657.77
2018-07-15T09:50:37.050Z,98655.02
2018-07-15T09:53:03.520Z,98655.53
2018-07-15T09:55:30.262Z,98661.10
2018-07-15T09:57:56.742Z,98654.08
2018-07-15T10:00:23.324Z,98656.38
2018-07-15T10:02:51.038Z,98652.36
2018-07-15T10:05:17.532Z,98656.02
2018-07-15T10:07:46.645Z,98655.89
2018-07-15T10:10:15.136Z,98656.30
2018-07-15T10:12:41.602Z,98653.73
2018-07-15T10:15:08.114Z,98651.03
2018-07-15T10:17:34.895Z,98647.13
2018-07-15T10:20:01.407Z,98646.04
2018-07-15T10:22:30.856Z,98643.48
2018-07-15T10:24:57.668Z,98642.81
2018-07-15T10:27:24.408Z,98643.84
2018-07-15T10:29:50.861Z,98641.25
2018-07-15T10:32:17.606Z,98645.68
2018-07-15T10:34:44.801Z,98636.56
2018-07-15T10:37:11.263Z,98640.34
2018-07-15T10:39:39.738Z,98645.93
2018-07-15T10:42:06.223Z,98640.03
2018-07-15T10:44:32.746Z,98631.00
2018-07-15T10:47:00.056Z,98631.88
2018-07-15T10:49:27.165Z,98633.39
2018-07-15T10:51:53.652Z,98629.37
2018-07-15T10:54:20.681Z,98635.85
2018-07-15T10:56:47.152Z,98626.22
2018-07-15T10:59:13.603Z,98628.07
2018-07-15T11:01:40.387Z,98625.08
2018-07-15T11:04:06.865Z,98616.53
2018-07-15T11:06:34.257Z,98613.33
2018-07-15T11:09:01.942Z,98613.85
2018-07-15T11:11:28.403Z,98610.08
2018-07-15T11:13:54.870Z,98601.69
2018-07-15T11:16:21.712Z,98599.68
2018-07-15T11:18:48.185Z,98599.63
2018-07-15T11:21:14.674Z,98602.64
2018-07-15T11:23:42.555Z,98595.78
2018-07-15T11:28:43.356Z,98598.30
2018-07-15T11:31:12.954Z,98597.61
2018-07-15T11:33:39.439Z,98601.02
2018-07-15T11:36:06.283Z,98597.83
2018-07-15T11:38:32.748Z,98593.90
2018-07-15T11:41:02.550Z,98585.81
2018-07-15T11:43:29.691Z,98591.27
2018-07-15T11:45:56.248Z,98578.48
2018-07-15T11:48:22.888Z,98578.77
2018-07-15T11:50:49.862Z,98583.98
2018-07-15T11:53:17.509Z,98582.97
2018-07-15T11:55:44.950Z,98578.30
2018-07-15T11:58:11.858Z,98577.30
2018-07-15T12:00:38.326Z,98570.30
2018-07-15T12:03:06.017Z,98576.05
2018-07-15T12:05:34.453Z,98568.03
2018-07-15T12:08:00.929Z,98561.83
2018-07-15T12:10:27.418Z,98557.16
2018-07-15T12:12:54.740Z,98555.56
2018-07-15T12:15:22.308Z,98555.34
2018-07-15T12:17:48.813Z,98560.46
2018-07-15T12:20:15.935Z,98552.28
2018-07-15T12:22:42.456Z,98556.69
2018-07-15T12:25:08.943Z,98547.86
2018-07-15T12:27:36.337Z,98551.39
2018-07-15T12:30:02.828Z,98546.20
2018-07-15T12:32:29.285Z,98542.98
2018-07-15T12:34:56.081Z,98535.28
2018-07-15T12:37:22.550Z,98535.84
2018-07-15T12:39:49.850Z,98538.93
2018-07-15T12:42:17.107Z,98523.13
2018-07-15T12:44:43.605Z,98529.86
2018-07-15T12:47:10.993Z,98533.23
2018-07-15T12:49:37.889Z,98517.13
2018-07-15T12:52:04.371Z,98515.99
2018-07-15T12:54:31.463Z,98520.63
2018-07-15T12:56:58.341Z,98514.44
2018-07-15T12:59:24.849Z,98518.48
2018-07-15T13:01:52.244Z,98512.20
2018-07-15T13:04:20.773Z,98501.34
2018-07-15T13:06:47.507Z,98496.52
2018-07-15T13:09:14.856Z,98499.59
2018-07-15T13:11:41.954Z,98494.05
2018-07-15T13:14:12.249Z,98494.77
2018-07-15T13:16:39.361Z,98488.80
2018-07-15T13:19:06.201Z,98485.58
2018-07-15T13:21:32.696Z,98486.20
2018-07-15T13:23:59.239Z,98485.80
2018-07-15T13:26:25.999Z,98482.14
2018-07-15T13:28:52.499Z,98481.27
2018-07-15T13:31:19.998Z,98476.98
2018-07-15T13:33:46.936Z,98472.52
2018-07-15T13:36:13.418Z,98471.53
2018-07-15T13:38:40.541Z,98470.03
2018-07-15T13:41:07.323Z,98471.39
2018-07-15T13:43:35.179Z,98468.02
2018-07-15T13:46:02.237Z,98473.67
2018-07-15T13:48:29.071Z,98468.69
2018-07-15T13:50:55.596Z,98460.68
2018-07-15T13:53:22.096Z,98457.47
2018-07-15T13:55:48.905Z,98457.15
2018-07-15T13:58:15.394Z,98454.72
2018-07-15T14:00:41.945Z,98448.91
2018-07-15T14:03:08.793Z,98454.31
2018-07-15T14:05:35.719Z,98449.57
2018-07-15T14:08:05.244Z,98444.25
2018-07-15T14:10:32.066Z,98446.43
2018-07-15T14:13:01.539Z,98448.71
2018-07-15T14:15:28.260Z,98444.38
2018-07-15T14:17:55.042Z,98431.55
2018-07-15T14:20:21.521Z,98423.74
2018-07-15T14:22:49.644Z,98425.06
2018-07-15T14:25:16.434Z,98444.25
2018-07-15T14:27:44.662Z,98425.88
2018-07-15T14:30:12.464Z,98419.70
2018-07-15T14:32:39.237Z,98425.52
2018-07-15T14:35:06.718Z,98422.27
2018-07-15T14:39:18.233Z,98419.90
2018-07-15T14:41:45.354Z,98413.97
2018-07-15T14:48:20.449Z,98414.35
2018-07-15T14:50:47.189Z,98433.72
2018-07-15T14:53:13.690Z,98415.84
2018-07-15T14:55:40.217Z,98413.08
2018-07-15T14:58:07.151Z,98414.94
2018-07-15T15:00:33.657Z,98415.04
2018-07-15T15:03:02.420Z,98409.14
2018-07-15T15:05:31.023Z,98413.22
2018-07-15T15:07:57.484Z,98409.47
2018-07-15T15:10:23.996Z,98395.88
2018-07-15T15:14:47.572Z,98402.33
2018-07-15T15:17:15.301Z,98396.96
2018-07-15T15:19:41.791Z,98398.73
2018-07-15T15:22:08.480Z,98392.03
2018-07-15T15:24:35.423Z,98383.73
2018-07-15T15:27:02.643Z,98393.37
2018-07-15T15:29:30.110Z,98391.56
2018-07-15T15:31:56.913Z,98386.61
2018-07-15T15:36:10.709Z,98389.34
2018-07-15T15:38:39.021Z,98407.55
2018-07-15T15:41:05.667Z,98388.86
2018-07-15T15:44:58.955Z,98400.26
2018-07-15T15:47:25.620Z,98389.71
2018-07-15T15:49:54.030Z,98394.09
2018-07-15T15:52:21.437Z,98384.86
2018-07-15T15:54:47.876Z,98374.98
2018-07-15T16:01:02.373Z,98363.03
2018-07-15T16:12:37.542Z,98344.09
2018-07-15T16:15:04.046Z,98352.48
2018-07-15T16:19:51.729Z,98355.82
2018-07-15T16:30:54.721Z,98348.22
2018-07-15T16:38:23.616Z,98357.12
2018-07-15T16:40:50.163Z,98358.80
2018-07-15T16:43:18.245Z,98358.98
2018-07-15T16:59:58.680Z,98363.59
2018-07-15T17:04:21.495Z,98362.99
2018-07-15T17:06:50.268Z,98361.87
2018-07-15T17:14:08.519Z,98354.59
2018-07-15T17:17:36.736Z,98350.03
2018-07-15T17:20:04.611Z,98352.72
2018-07-15T17:22:31.934Z,98345.63
2018-07-15T17:37:11.215Z,98331.52
2018-07-15T17:44:34.282Z,98325.17
2018-07-15T17:47:01.548Z,98324.89
2018-07-15T17:51:45.437Z,98327.02
2018-07-15T17:54:13.048Z,98325.08
2018-07-15T17:56:39.538Z,98331.39
2018-07-15T18:03:14.669Z,98320.74
2018-07-15T18:12:13.545Z,98320.56
2018-07-15T18:14:40.145Z,98321.77
2018-07-15T18:17:06.650Z,98327.16
2018-07-15T18:19:34.518Z,98321.41
2018-07-15T18:41:53.573Z,98338.57
2018-07-15T18:46:17.159Z,98345.27
2018-07-15T18:48:43.649Z,98345.82
2018-07-15T18:54:16.349Z,98347.30
2018-07-15T18:59:25.945Z,98341.14
2018-07-15T19:01:52.528Z,98346.53
2018-07-15T19:08:25.081Z,98341.53
2018-07-15T19:10:52.605Z,98340.16
2018-07-15T19:13:19.945Z,98343.36
2018-07-15T19:15:46.591Z,98342.94
2018-07-15T19:18:13.364Z,98347.53
2018-07-15T19:20:40.967Z,98354.03
2018-07-15T19:23:07.433Z,98354.73
2018-07-15T19:25:36.028Z,98363.45
2018-07-15T19:28:03.455Z,98365.09
2018-07-15T19:30:31.082Z,98368.11
2018-07-15T19:32:58.909Z,98366.23
2018-07-15T19:35:26.090Z,98373.15
2018-07-15T19:41:16.518Z,98381.88
2018-07-15T19:43:43.748Z,98386.42
2018-07-15T19:48:41.757Z,98390.66
2018-07-15T19:51:08.266Z,98388.12
2018-07-15T19:53:35.567Z,98393.16
2018-07-15T19:56:02.457Z,98400.08
2018-07-15T19:58:29.980Z,98401.31
2018-07-15T20:00:57.670Z,98401.48
2018-07-15T20:03:26.504Z,98405.58
2018-07-15T20:05:53.557Z,98409.59
2018-07-15T20:08:20.226Z,98407.16
2018-07-15T20:10:47.002Z,98404.33
2018-07-15T20:13:14.470Z,98400.64
2018-07-15T20:15:40.928Z,98410.23
2018-07-15T20:18:07.677Z,98414.95
2018-07-15T20:20:34.472Z,98414.41
2018-07-15T20:23:01.964Z,98416.88
2018-07-15T20:25:29.563Z,98414.94
2018-07-15T20:27:56.857Z,98417.72
2018-07-15T20:30:23.326Z,98414.20
2018-07-15T20:32:51.041Z,98417.73
2018-07-15T20:35:17.557Z,98422.89
2018-07-15T20:37:45.698Z,98422.03
2018-07-15T20:40:12.491Z,98427.39
2018-07-15T20:42:40.172Z,98427.30
2018-07-15T20:45:06.642Z,98420.89
2018-07-15T20:47:33.400Z,98420.80
2018-07-15T20:49:59.890Z,98421.48
2018-07-15T20:52:26.357Z,98427.34
2018-07-15T20:57:33.601Z,98433.81
2018-07-15T21:00:00.614Z,98437.16
2018-07-15T21:02:27.133Z,98439.80
2018-07-15T21:04:54.633Z,98435.73
2018-07-15T21:09:52.471Z,98432.90
2018-07-15T21:12:22.500Z,98429.04
2018-07-15T21:14:49.630Z,98431.74
2018-07-15T21:17:19.216Z,98436.30
2018-07-15T21:19:47.657Z,98434.95
2018-07-15T21:22:15.324Z,98432.30
2018-07-15T21:24:41.772Z,98432.36
2018-07-15T21:27:10.179Z,98435.53
2018-07-15T21:29:36.670Z,98439.72
2018-07-15T21:32:03.131Z,98434.34
2018-07-15T21:34:30.042Z,98437.50
2018-07-15T21:36:57.396Z,98432.05
2018-07-15T21:39:24.931Z,98426.27
2018-07-15T21:44:24.607Z,98427.98
2018-07-15T21:46:52.018Z,98429.25
2018-07-15T21:49:21.785Z,98433.64
2018-07-15T21:51:48.820Z,98435.39
2018-07-15T21:54:16.285Z,98426.78
2018-07-15T21:56:43.225Z,98429.45
2018-07-15T21:59:10.328Z,98433.05
2018-07-15T22:01:36.786Z,98426.41
2018-07-15T22:04:04.590Z,98430.83
2018-07-15T22:06:34.789Z,98431.84
2018-07-15T22:09:02.305Z,98426.16
2018-07-15T22:11:33.067Z,98429.58
2018-07-15T22:14:01.103Z,98435.81
2018-07-15T22:16:28.301Z,98438.25
2018-07-15T22:18:55.386Z,98430.87
2018-07-15T22:23:55.691Z,98439.88
2018-07-15T22:26:23.526Z,98436.86
2018-07-15T22:28:50.902Z,98437.00
2018-07-15T22:31:19.010Z,98434.22
2018-07-15T22:33:53.084Z,98430.95
2018-07-15T22:36:20.855Z,98429.39
2018-07-15T22:38:48.100Z,98429.90
2018-07-15T22:41:15.148Z,98428.22
2018-07-15T22:43:41.692Z,98428.61
2018-07-15T22:46:09.109Z,98425.93
2018-07-15T22:48:37.034Z,98423.78
2018-07-15T22:51:04.240Z,98419.28
2018-07-15T22:53:32.324Z,98421.23
2018-07-15T22:55:59.956Z,98430.20
2018-07-15T22:58:26.702Z,98432.77
2018-07-15T23:00:55.155Z,98434.23
2018-07-15T23:03:23.159Z,98436.02
2018-07-15T23:05:49.619Z,98435.33
2018-07-15T23:08:16.097Z,98424.56
2018-07-15T23:10:42.561Z,98424.67
2018-07-15T23:13:09.524Z,98427.45
2018-07-15T23:15:36.013Z,98430.50
2018-07-15T23:18:02.509Z,98425.28
2018-07-15T23:20:28.998Z,98429.04
2018-07-15T23:22:55.872Z,98433.52
2018-07-15T23:25:22.362Z,98429.30
2018-07-15T23:27:48.822Z,98426.12
2018-07-15T23:30:15.307Z,98426.73
2018-07-15T23:32:42.221Z,98427.21
2018-07-15T23:35:08.792Z,98425.88
2018-07-15T23:37:35.429Z,98419.22
2018-07-15T23:40:01.981Z,98425.84
2018-07-15T23:42:29.045Z,98423.55
2018-07-15T23:44:55.738Z,98429.11
2018-07-15T23:47:22.389Z,98426.07
2018-07-15T23:49:48.878Z,98425.11
2018-07-15T23:52:15.821Z,98422.92
2018-07-15T23:54:42.301Z,98416.60
2018-07-15T23:57:08.790Z,98420.50
2018-07-15T23:59:35.270Z,98418.80
